aviador You're here:

CYPH Decoded Metar

INUKJUAK in QC, CANADA
Report Time2017-06-24 17:00:00
UTC Time2017-06-24 17:23:24
Flight Rules vfr VFR
Wind340° at 14 Gusting to 20 kt
W.Decomp.*RWY 07: 4.6 kt HW 13.2 kt LCW
W.Rank340° ranks 22
Current wind is above 340° avg. (11.9)
Visibility9999 m
Phenomena:N/A
Clouds:N/A
Expected CloudBase > 2,400 ft AGL from Temp-Dew spread
CeilingNone
Temp12°C (ISA -3)
Dew Point06°C (67% RH)
AAT6.1°C
QNH1000 hPa
Density Alt226 ft
Elevation10 ft
Report Wrong Elevation
Raw Report
CYPH 241700Z AUTO 34014G20KT 9SM CLR 12/06 A2954 RMK SLP007
DENSITY ALT 100FT=

Extra information for CYPH:More info

Metar Taf Metar & Taf Last 4 Metars F.Rules Stats Wind Profile Meteogram Temp Stats Airport Information Weather charts Add Link Nearby VenuesMetar ALERT Operation Metar Decoded Social comments